Time;durP1;ratioP1;P1;durP2;ratioP2;P2;SDS_P1;SDS_P2;PMS_P1;PMS_P2;Temp;Humidity;BMP_temperature;BMP_pressure;BME280_temperature;BME280_humidity;BME280_pressure;Samples;Min_cycle;Max_cycle;Signal;HPM_P1;HPM_P2
2022/06/21 00:00:19;;;;;;;1.40;1.20;;;27.50;44.50;;;;;;6108603;23;20397;-83
2022/06/21 00:02:45;;;;;;;1.67;1.30;;;27.50;44.50;;;;;;6110888;23;20358;-83
2022/06/21 00:05:22;;;;;;;2.60;1.27;;;27.50;44.50;;;;;;6109199;23;20418;-83
2022/06/21 00:07:48;;;;;;;3.30;1.20;;;27.50;44.40;;;;;;6109786;23;20386;-83
2022/06/21 00:10:20;;;;;;;1.43;1.10;;;27.50;44.40;;;;;;6109820;23;20445;-83
2022/06/21 00:12:46;;;;;;;1.77;1.27;;;27.50;44.40;;;;;;6107795;23;20185;-83
2022/06/21 00:15:12;;;;;;;1.57;1.30;;;27.50;44.40;;;;;;6110498;23;20408;-83
2022/06/21 00:17:41;;;;;;;1.90;1.47;;;27.50;44.30;;;;;;6108125;23;20413;-82
2022/06/21 00:20:10;;;;;;;2.80;1.43;;;27.50;44.20;;;;;;6109650;23;20374;-83
2022/06/21 00:22:39;;;;;;;1.27;1.17;;;27.50;44.30;;;;;;6109555;23;20393;-83
2022/06/21 00:25:26;;;;;;;2.77;1.50;;;27.40;44.10;;;;;;6111602;23;20861;-83
2022/06/21 00:27:54;;;;;;;1.83;1.30;;;27.50;44.20;;;;;;6112285;23;20445;-83
2022/06/21 00:30:21;;;;;;;1.30;1.17;;;27.40;44.80;;;;;;6112571;23;20429;-84
2022/06/21 00:32:51;;;;;;;1.40;1.30;;;27.50;44.10;;;;;;6114302;23;20374;-83
2022/06/21 00:35:20;;;;;;;3.90;1.53;;;27.40;44.00;;;;;;6114678;23;20421;-82
2022/06/21 00:37:49;;;;;;;1.60;1.23;;;27.40;44.00;;;;;;6112532;23;20396;-83
2022/06/21 00:40:28;;;;;;;1.60;1.20;;;27.40;44.40;;;;;;6113180;23;20413;-83
2022/06/21 00:43:04;;;;;;;1.30;1.10;;;27.40;43.90;;;;;;6112947;23;20385;-83
2022/06/21 00:45:35;;;;;;;1.17;1.07;;;27.40;43.90;;;;;;6113640;23;20381;-83
2022/06/21 00:48:12;;;;;;;2.50;1.40;;;27.40;43.90;;;;;;6113155;23;20378;-83
2022/06/21 00:50:43;;;;;;;1.57;1.17;;;27.40;43.80;;;;;;6110597;23;20449;-85
2022/06/21 00:53:23;;;;;;;2.37;1.17;;;27.40;43.90;;;;;;6110971;23;20350;-85
2022/06/21 00:56:27;;;;;;;2.03;1.73;;;27.40;44.00;;;;;;6109974;23;20378;-86
2022/06/21 00:58:56;;;;;;;1.30;1.10;;;27.30;43.80;;;;;;6111635;23;20370;-85
2022/06/21 01:01:29;;;;;;;1.60;1.40;;;27.30;43.80;;;;;;6132667;23;20388;-86
2022/06/21 01:04:10;;;;;;;1.80;1.50;;;27.30;44.30;;;;;;6115491;23;20377;-85
2022/06/21 01:06:41;;;;;;;1.50;1.20;;;27.30;43.80;;;;;;6115154;23;20380;-85
2022/06/21 01:09:37;;;;;;;3.13;1.30;;;27.30;43.80;;;;;;6141548;23;20373;-85
2022/06/21 01:12:14;;;;;;;1.20;1.00;;;27.30;43.80;;;;;;6115705;23;20408;-85
2022/06/21 01:14:47;;;;;;;2.00;1.30;;;27.30;43.80;;;;;;6115387;23;20436;-85
2022/06/21 01:17:14;;;;;;;2.37;1.47;;;27.20;43.70;;;;;;6141357;23;20361;-85
2022/06/21 01:19:48;;;;;;;1.40;1.10;;;27.20;43.70;;;;;;6114851;23;20709;-85
2022/06/21 01:22:25;;;;;;;1.40;1.00;;;27.20;43.70;;;;;;6115905;23;20397;-85
2022/06/21 01:25:30;;;;;;;2.47;1.50;;;27.20;43.70;;;;;;6114951;23;20409;-85
2022/06/21 01:27:59;;;;;;;1.50;1.20;;;27.20;43.70;;;;;;6140977;23;20377;-84
2022/06/21 01:30:27;;;;;;;1.53;1.30;;;27.20;43.80;;;;;;6141263;23;20416;-84
2022/06/21 01:32:56;;;;;;;2.60;1.50;;;27.20;43.90;;;;;;6142048;23;20405;-85
2022/06/21 01:35:34;;;;;;;1.40;1.10;;;27.20;43.80;;;;;;6116777;23;20463;-83
2022/06/21 01:38:01;;;;;;;1.20;1.10;;;27.10;43.80;;;;;;6117225;23;20385;-83
2022/06/21 01:40:31;;;;;;;1.20;1.00;;;27.10;43.80;;;;;;6143110;23;20392;-82
2022/06/21 01:43:03;;;;;;;1.80;1.40;;;27.10;43.80;;;;;;6117284;23;20384;-82
2022/06/21 01:45:36;;;;;;;3.00;1.30;;;27.10;43.70;;;;;;6094015;23;20392;-82
2022/06/21 01:48:12;;;;;;;1.40;1.30;;;27.10;43.80;;;;;;6117009;23;20381;-82
2022/06/21 01:50:39;;;;;;;1.57;1.20;;;27.10;43.80;;;;;;6143046;23;20401;-84
2022/06/21 01:53:08;;;;;;;1.70;1.30;;;27.10;43.90;;;;;;6141733;23;20448;-85
2022/06/21 01:55:46;;;;;;;1.30;1.00;;;27.10;43.80;;;;;;6122019;23;20408;-85
2022/06/21 01:58:22;;;;;;;3.83;1.40;;;27.10;43.80;;;;;;6124266;23;20436;-85
2022/06/21 02:01:04;;;;;;;1.30;1.20;;;27.10;43.70;;;;;;6115965;23;20412;-87
2022/06/21 02:03:35;;;;;;;2.00;1.17;;;27.10;43.80;;;;;;6114530;23;20413;-87
2022/06/21 02:06:07;;;;;;;3.00;1.50;;;27.10;43.80;;;;;;6116275;23;20381;-86
2022/06/21 02:09:04;;;;;;;1.80;1.40;;;27.10;43.60;;;;;;6114545;23;20449;-87
2022/06/21 02:11:45;;;;;;;3.03;1.60;;;27.10;43.60;;;;;;6113395;23;20480;-87
2022/06/21 02:14:28;;;;;;;2.57;1.37;;;27.10;43.70;;;;;;6114454;23;20369;-86
2022/06/21 02:17:16;;;;;;;1.87;1.77;;;27.00;43.60;;;;;;6115077;23;20382;-87
2022/06/21 02:19:48;;;;;;;1.40;1.30;;;27.00;43.60;;;;;;6116018;23;20361;-86
2022/06/21 02:22:25;;;;;;;2.57;1.40;;;27.00;43.60;;;;;;6115759;23;20378;-84
2022/06/21 02:24:53;;;;;;;4.57;1.73;;;27.00;43.60;;;;;;6114767;23;20397;-85
2022/06/21 02:27:23;;;;;;;2.43;1.60;;;27.00;43.60;;;;;;6115670;23;20393;-85
2022/06/21 02:29:52;;;;;;;1.40;1.20;;;26.90;43.50;;;;;;6115623;23;20389;-84
2022/06/21 02:32:41;;;;;;;2.70;1.17;;;26.90;43.60;;;;;;6115034;23;20446;-84
2022/06/21 02:35:18;;;;;;;1.83;1.30;;;26.90;43.60;;;;;;6115864;23;20376;-84
2022/06/21 02:37:47;;;;;;;1.77;1.30;;;26.90;43.60;;;;;;6114928;23;20373;-84
2022/06/21 02:40:21;;;;;;;1.83;1.30;;;26.90;43.60;;;;;;6114960;23;20381;-84
2022/06/21 02:42:50;;;;;;;3.80;1.40;;;26.90;43.60;;;;;;6116563;23;20364;-85
2022/06/21 02:45:28;;;;;;;1.43;1.10;;;26.90;43.60;;;;;;6115091;23;20468;-85
2022/06/21 02:47:56;;;;;;;3.73;1.50;;;26.90;43.60;;;;;;6114754;23;20381;-84
2022/06/21 02:50:29;;;;;;;1.33;1.10;;;26.90;43.60;;;;;;6115273;23;20421;-84
2022/06/21 02:52:56;;;;;;;1.27;1.10;;;26.90;43.70;;;;;;6114844;23;20469;-85
2022/06/21 02:55:51;;;;;;;1.90;1.73;;;26.90;43.70;;;;;;6115577;23;20378;-85
2022/06/21 02:58:37;;;;;;;1.57;1.27;;;26.90;43.80;;;;;;6136678;23;20386;-85
2022/06/21 03:01:09;;;;;;;2.27;1.50;;;26.90;43.70;;;;;;6114687;23;20437;-84
2022/06/21 03:03:36;;;;;;;1.43;1.33;;;26.80;43.70;;;;;;6116354;23;20416;-86
2022/06/21 03:06:10;;;;;;;2.20;1.50;;;26.90;43.80;;;;;;6117457;23;20382;-86
2022/06/21 03:08:46;;;;;;;2.27;1.57;;;26.80;43.80;;;;;;6117205;23;20414;-86
2022/06/21 03:11:12;;;;;;;1.73;1.10;;;26.80;43.80;;;;;;6116889;23;20417;-86
2022/06/21 03:13:38;;;;;;;2.60;1.60;;;26.80;43.80;;;;;;6116601;23;20446;-86
2022/06/21 03:16:13;;;;;;;2.60;1.30;;;26.80;43.80;;;;;;6116519;23;20513;-86
2022/06/21 03:18:53;;;;;;;1.67;1.30;;;26.80;43.80;;;;;;6093834;23;20369;-86
2022/06/21 03:21:30;;;;;;;1.43;1.33;;;26.80;43.70;;;;;;6116292;23;20384;-86
2022/06/21 03:23:58;;;;;;;2.17;1.27;;;26.80;43.60;;;;;;6117799;23;20470;-86
2022/06/21 03:26:26;;;;;;;2.73;1.27;;;26.80;43.60;;;;;;6116075;23;20389;-86
2022/06/21 03:28:53;;;;;;;1.30;1.20;;;26.80;43.60;;;;;;6115732;23;20392;-86
2022/06/21 03:31:25;;;;;;;1.80;1.30;;;26.80;43.70;;;;;;6118073;23;20745;-86
2022/06/21 03:33:55;;;;;;;1.63;1.50;;;26.80;43.70;;;;;;6116527;23;20381;-86
2022/06/21 03:36:26;;;;;;;1.77;1.27;;;26.80;43.70;;;;;;6117174;23;20445;-86
2022/06/21 03:38:59;;;;;;;2.00;1.53;;;26.70;43.70;;;;;;6118008;23;20441;-86
2022/06/21 03:41:43;;;;;;;1.30;1.20;;;26.70;43.70;;;;;;6117002;23;20396;-86
2022/06/21 03:44:37;;;;;;;1.33;1.23;;;26.80;43.80;;;;;;6117290;23;20390;-86
2022/06/21 03:47:32;;;;;;;1.50;1.40;;;26.70;43.70;;;;;;6118287;23;20366;-86
2022/06/21 03:50:03;;;;;;;1.60;1.23;;;26.70;43.70;;;;;;6116307;23;20429;-86
2022/06/21 03:52:44;;;;;;;1.80;1.60;;;26.70;43.70;;;;;;6116726;23;20382;-86
2022/06/21 03:55:25;;;;;;;2.13;1.10;;;26.70;43.70;;;;;;6116068;23;20401;-86
2022/06/21 03:58:12;;;;;;;1.70;1.40;;;26.70;43.80;;;;;;6116358;23;20764;-87
2022/06/21 04:00:52;;;;;;;2.53;1.60;;;26.70;43.70;;;;;;6116223;23;20731;-86
2022/06/21 04:03:31;;;;;;;1.60;1.50;;;26.70;43.70;;;;;;6117308;23;20386;-86
2022/06/21 04:06:13;;;;;;;1.93;1.40;;;26.70;43.80;;;;;;6116286;23;20405;-86
2022/06/21 04:08:45;;;;;;;1.60;1.50;;;26.70;43.60;;;;;;6116328;23;20386;-86
2022/06/21 04:11:21;;;;;;;1.83;1.73;;;26.70;43.60;;;;;;6115758;23;20422;-86
2022/06/21 04:13:55;;;;;;;2.50;2.07;;;26.70;43.60;;;;;;6116611;23;20377;-86
2022/06/21 04:16:38;;;;;;;2.03;1.53;;;26.70;43.30;;;;;;6117047;23;20358;-87
2022/06/21 04:19:31;;;;;;;7.17;2.00;;;26.70;43.30;;;;;;6117483;23;20365;-86
2022/06/21 04:22:02;;;;;;;2.10;1.90;;;26.70;43.20;;;;;;6114354;23;20373;-85
2022/06/21 04:24:54;;;;;;;2.43;1.90;;;26.70;43.30;;;;;;6117312;23;20390;-85
2022/06/21 04:27:46;;;;;;;3.40;1.60;;;26.70;43.20;;;;;;6117994;23;20814;-85
2022/06/21 04:30:25;;;;;;;4.53;2.13;;;26.70;43.20;;;;;;6117699;23;20756;-84
2022/06/21 09:01:46;;;;;;;;;;;;;;;;;;;;;
2022/06/21 09:33:18;;;;;;;;;;;;;;;;;;;;;
2022/06/21 10:00:21;;;;;;;;;;;;;;;;;;;;;
2022/06/21 10:48:34;;;;;;;16.33;6.13;;;26.50;43.20;;;;;;5885391;24;20393;-87
2022/06/21 11:01:28;;;;;;;58.30;22.23;;;26.50;42.90;;;;;;5914768;24;20405;-88
2022/06/21 11:04:11;;;;;;;39.10;15.13;;;26.60;43.00;;;;;;5890859;24;20400;-87
2022/06/21 11:07:19;;;;;;;37.27;13.27;;;26.60;42.20;;;;;;5891209;24;20386;-87
2022/06/21 11:48:50;;;;;;;;;;;;;;;;;;;;;
2022/06/21 12:46:27;;;;;;;;;;;;;;;;;;;;;
2022/06/21 15:56:29;;;;;;;;;;;;;;;;;;;;;
2022/06/21 16:25:22;;;;;;;1.77;1.27;;;27.40;45.00;;;;;;5968392;23;20379;-84
2022/06/21 16:34:46;;;;;;;2.10;1.70;;;27.40;45.00;;;;;;6023453;23;20372;-83
2022/06/21 16:37:47;;;;;;;3.67;1.63;;;27.40;45.00;;;;;;6000444;23;20458;-83
2022/06/21 16:43:17;;;;;;;1.70;1.30;;;27.50;45.10;;;;;;6022786;23;20402;-83
2022/06/21 16:45:55;;;;;;;2.57;1.60;;;27.50;45.10;;;;;;6000052;23;20392;-83
2022/06/21 16:48:37;;;;;;;2.00;1.37;;;27.50;45.10;;;;;;5998301;23;20396;-84
2022/06/21 16:51:27;;;;;;;2.43;1.50;;;27.60;45.70;;;;;;6022739;23;20416;-84
2022/06/21 16:54:27;;;;;;;2.00;1.33;;;27.60;45.10;;;;;;5998867;23;20485;-84
2022/06/21 16:56:56;;;;;;;3.57;1.50;;;27.60;45.00;;;;;;5998834;23;20911;-84
2022/06/21 16:59:43;;;;;;;1.80;1.30;;;27.60;44.90;;;;;;5999149;23;20587;-84
2022/06/21 17:02:16;;;;;;;1.53;1.30;;;27.60;44.90;;;;;;6126207;23;20381;-83
2022/06/21 17:04:48;;;;;;;2.10;1.40;;;27.60;44.80;;;;;;6141358;23;20400;-83
2022/06/21 17:08:12;;;;;;;;;;;;;;;;;;;;;
2022/06/21 17:14:26;;;;;;;;;;;;;;;;;;;;;
2022/06/21 17:17:02;;;;;;;1.93;1.20;;;27.60;44.80;;;;;;5966256;24;20500;-84
2022/06/21 17:19:39;;;;;;;4.03;1.50;;;27.60;44.80;;;;;;5966719;24;20379;-84
2022/06/21 17:22:37;;;;;;;1.70;1.50;;;27.60;44.80;;;;;;5942674;24;20933;-85
2022/06/21 17:26:09;;;;;;;2.30;1.57;;;27.60;44.80;;;;;;5942485;24;20398;-85
2022/06/21 17:29:37;;;;;;;3.00;1.50;;;27.60;44.70;;;;;;5937588;24;20406;-85
2022/06/21 17:46:36;;;;;;;;;;;;;;;;;;;;;
2022/06/21 17:52:48;;;;;;;1.40;1.20;;;27.60;44.80;;;;;;5883390;24;20546;-85
2022/06/21 17:55:40;;;;;;;1.70;1.10;;;27.60;44.80;;;;;;5883288;24;20401;-83
2022/06/21 17:58:24;;;;;;;2.53;1.63;;;27.60;44.80;;;;;;5884145;24;20408;-84
2022/06/21 18:01:48;;;;;;;;;;;;;;;;;;;;;
2022/06/21 18:05:01;;;;;;;;;;;;;;;;;;;;;
2022/06/21 18:08:00;;;;;;;1.27;1.17;;;27.60;44.80;;;;;;5802731;24;20419;-84
2022/06/21 18:18:15;;;;;;;1.50;1.20;;;27.60;44.80;;;;;;5874128;24;20367;-84
2022/06/21 18:21:13;;;;;;;1.73;1.47;;;27.60;44.80;;;;;;5910788;24;20412;-84
2022/06/21 18:24:06;;;;;;;1.70;1.57;;;27.60;44.80;;;;;;5888837;24;20496;-85
2022/06/21 18:26:42;;;;;;;1.50;1.13;;;27.60;44.90;;;;;;5888131;24;20446;-85
2022/06/21 18:29:16;;;;;;;3.33;1.30;;;27.60;44.90;;;;;;5894033;24;20478;-86
2022/06/21 18:59:36;;;;;;;3.17;1.17;;;27.60;45.10;;;;;;5856350;24;20454;-85
2022/06/21 19:02:59;;;;;;;1.77;1.20;;;27.60;45.20;;;;;;5856427;24;20453;-84
2022/06/21 19:09:21;;;;;;;1.80;1.70;;;27.60;45.20;;;;;;5857325;24;20914;-84
2022/06/21 19:12:54;;;;;;;1.23;1.10;;;27.60;45.20;;;;;;5856618;24;20498;-84
2022/06/21 19:16:21;;;;;;;;;;;;;;;;;;;;;
2022/06/21 19:19:34;;;;;;;2.30;1.33;;;27.60;45.10;;;;;;5858441;24;20432;-84
2022/06/21 19:25:47;;;;;;;1.50;1.10;;;27.60;45.00;;;;;;5906072;24;20416;-86
2022/06/21 19:29:08;;;;;;;2.93;1.50;;;27.60;45.00;;;;;;5919953;24;20444;-87
2022/06/21 19:32:12;;;;;;;1.60;1.30;;;27.60;45.00;;;;;;5923203;24;20445;-86
2022/06/21 19:35:20;;;;;;;2.47;1.73;;;27.60;45.00;;;;;;5925137;24;20394;-87
2022/06/21 19:38:23;;;;;;;2.13;1.30;;;27.60;44.90;;;;;;5947554;24;20421;-87
2022/06/21 19:41:30;;;;;;;1.77;1.60;;;27.60;44.90;;;;;;6054330;23;20399;-87
2022/06/21 19:44:14;;;;;;;1.70;1.30;;;27.60;44.90;;;;;;6030553;23;20930;-87
2022/06/21 19:46:40;;;;;;;1.53;1.10;;;27.60;44.90;;;;;;6030698;23;20379;-87
2022/06/21 19:49:25;;;;;;;1.80;1.50;;;27.60;44.90;;;;;;6031686;23;20384;-87
2022/06/21 19:52:10;;;;;;;1.50;1.20;;;27.60;44.80;;;;;;6008880;23;20179;-87
2022/06/21 19:55:02;;;;;;;2.80;1.40;;;27.60;44.80;;;;;;6031357;23;20430;-86
2022/06/21 19:57:31;;;;;;;1.57;1.47;;;27.60;44.80;;;;;;6031752;23;20457;-86
2022/06/21 20:00:15;;;;;;;2.03;1.70;;;27.60;44.80;;;;;;6031262;23;21007;-86
2022/06/21 20:03:16;;;;;;;2.17;1.30;;;27.60;44.80;;;;;;6102583;23;20399;-86
2022/06/21 20:06:02;;;;;;;2.13;1.47;;;27.60;44.80;;;;;;6119988;23;20408;-86
2022/06/21 20:08:38;;;;;;;1.80;1.40;;;27.60;44.80;;;;;;6142916;23;20377;-86
2022/06/21 20:11:17;;;;;;;2.33;1.50;;;27.60;44.80;;;;;;6117747;23;20428;-86
2022/06/21 20:17:10;;;;;;;1.53;1.43;;;27.60;44.80;;;;;;6142515;23;20384;-87
2022/06/21 20:20:21;;;;;;;2.10;1.30;;;27.60;44.80;;;;;;6108855;23;20463;-86
2022/06/21 20:23:24;;;;;;;1.90;1.80;;;27.60;44.70;;;;;;6117474;23;20697;-86
2022/06/21 20:26:17;;;;;;;1.70;1.30;;;27.60;44.60;;;;;;6144518;23;20383;-86
2022/06/21 20:29:28;;;;;;;1.70;1.60;;;27.60;44.60;;;;;;6117052;23;20387;-86
2022/06/21 20:36:24;;;;;;;1.70;1.30;;;27.50;44.50;;;;;;5971589;24;20748;-85
2022/06/21 20:38:59;;;;;;;1.57;1.47;;;27.50;44.50;;;;;;5971441;24;20382;-86
2022/06/21 20:41:35;;;;;;;1.67;1.57;;;27.50;44.60;;;;;;5942817;24;20401;-86
2022/06/21 20:44:19;;;;;;;1.80;1.50;;;27.50;44.60;;;;;;5949016;24;20394;-86
2022/06/21 20:46:59;;;;;;;2.03;1.70;;;27.50;44.70;;;;;;5949717;24;20453;-86
2022/06/21 20:49:26;;;;;;;1.40;1.20;;;27.50;44.60;;;;;;5948200;24;20412;-86
2022/06/21 20:52:03;;;;;;;2.00;1.50;;;27.50;44.60;;;;;;5971394;24;20430;-86
2022/06/21 20:54:41;;;;;;;2.20;1.70;;;27.50;44.70;;;;;;5971511;24;20389;-86
2022/06/21 20:57:13;;;;;;;2.20;1.50;;;27.50;44.70;;;;;;5971313;24;20389;-86
2022/06/21 20:59:45;;;;;;;1.40;1.20;;;27.50;44.70;;;;;;5971372;24;20445;-85
2022/06/21 21:02:30;;;;;;;1.53;1.43;;;27.50;44.70;;;;;;5948278;24;20421;-86
2022/06/21 21:05:18;;;;;;;2.60;1.43;;;27.50;44.70;;;;;;5971384;24;20511;-86
2022/06/21 21:08:11;;;;;;;1.30;1.20;;;27.50;44.70;;;;;;5950450;23;20410;-86
2022/06/21 21:10:52;;;;;;;1.97;1.50;;;27.50;44.70;;;;;;6094721;23;20424;-86
2022/06/21 21:13:58;;;;;;;1.63;1.40;;;27.50;44.70;;;;;;6095743;23;20392;-86
2022/06/21 21:16:57;;;;;;;1.40;1.30;;;27.50;44.70;;;;;;6118211;23;20388;-86
2022/06/21 21:19:37;;;;;;;1.77;1.67;;;27.50;44.70;;;;;;6111721;23;20871;-86
2022/06/21 21:22:24;;;;;;;1.60;1.30;;;27.40;44.50;;;;;;6119043;23;20942;-86
2022/06/21 21:25:11;;;;;;;1.90;1.70;;;27.40;44.50;;;;;;6120470;23;20393;-86
2022/06/21 21:27:47;;;;;;;2.67;1.43;;;27.40;44.50;;;;;;6119421;23;20393;-86
2022/06/21 21:30:18;;;;;;;1.43;1.33;;;27.40;44.40;;;;;;6118710;23;20380;-86
2022/06/21 21:32:51;;;;;;;1.50;1.40;;;27.40;44.40;;;;;;6119157;23;20476;-85
2022/06/21 21:35:44;;;;;;;1.70;1.47;;;27.40;44.40;;;;;;6119251;23;20380;-86
2022/06/21 21:38:22;;;;;;;1.93;1.73;;;27.40;44.30;;;;;;6119658;23;20385;-86
2022/06/21 21:41:34;;;;;;;2.53;1.87;;;27.40;44.30;;;;;;6119027;23;20380;-86
2022/06/21 21:46:53;;;;;;;2.40;1.40;;;27.40;44.20;;;;;;6144870;23;20349;-85
2022/06/21 21:49:27;;;;;;;2.60;1.70;;;27.40;44.30;;;;;;6119349;23;20396;-86
2022/06/21 21:52:00;;;;;;;2.30;1.70;;;27.40;44.20;;;;;;6118748;23;20424;-86
2022/06/21 21:54:28;;;;;;;2.43;2.00;;;27.40;44.10;;;;;;6144046;23;20368;-85
2022/06/21 21:57:07;;;;;;;2.10;1.40;;;27.40;44.10;;;;;;6119441;23;20413;-86
2022/06/21 21:59:38;;;;;;;1.70;1.60;;;27.40;44.10;;;;;;6144678;23;20369;-86
2022/06/21 22:02:05;;;;;;;4.47;2.47;;;27.40;44.00;;;;;;6119087;23;20419;-86
2022/06/21 22:05:00;;;;;;;2.30;1.70;;;27.40;44.00;;;;;;6145135;23;20377;-86
2022/06/21 22:07:41;;;;;;;3.23;1.93;;;27.40;43.90;;;;;;6118230;23;20385;-86
2022/06/21 22:10:25;;;;;;;2.17;1.97;;;27.40;43.90;;;;;;6118853;23;20436;-86
2022/06/21 22:13:21;;;;;;;2.07;1.80;;;27.40;44.00;;;;;;6144278;23;20448;-86
2022/06/21 22:15:53;;;;;;;1.70;1.60;;;27.40;44.00;;;;;;6144329;23;20416;-86
2022/06/21 22:18:22;;;;;;;2.00;1.63;;;27.30;44.00;;;;;;6118682;23;20385;-86
2022/06/21 22:20:59;;;;;;;2.20;1.63;;;27.30;43.90;;;;;;6118540;23;20392;-86
2022/06/21 22:23:36;;;;;;;2.67;2.00;;;27.30;43.90;;;;;;6118495;23;20448;-86
2022/06/21 22:26:14;;;;;;;2.20;2.00;;;27.30;43.80;;;;;;6119158;23;20372;-86
2022/06/21 22:28:53;;;;;;;3.33;2.30;;;27.30;43.80;;;;;;6118079;23;20387;-86
2022/06/21 22:31:27;;;;;;;2.40;2.00;;;27.40;43.80;;;;;;6144009;23;20420;-86
2022/06/21 22:34:15;;;;;;;3.13;2.50;;;27.30;43.80;;;;;;6119044;23;20389;-86
2022/06/21 22:37:01;;;;;;;2.93;2.30;;;27.30;43.70;;;;;;6119113;23;20744;-86
2022/06/21 22:39:33;;;;;;;2.80;2.50;;;27.30;43.70;;;;;;6119486;23;20389;-86
2022/06/21 22:42:02;;;;;;;3.50;2.20;;;27.30;43.70;;;;;;6119400;23;20381;-86
2022/06/21 22:44:42;;;;;;;3.57;2.30;;;27.30;43.70;;;;;;6120660;23;20393;-86
2022/06/21 22:47:20;;;;;;;2.77;2.30;;;27.30;43.60;;;;;;6121082;23;20417;-86
2022/06/21 22:49:51;;;;;;;2.43;2.10;;;27.30;43.50;;;;;;6146454;23;20353;-86
2022/06/21 22:52:42;;;;;;;3.53;2.33;;;27.30;43.30;;;;;;6120726;23;20484;-86
2022/06/21 22:55:10;;;;;;;2.77;2.20;;;27.30;43.30;;;;;;6146631;23;20358;-86
2022/06/21 22:57:41;;;;;;;3.27;2.50;;;27.30;43.40;;;;;;6097163;23;20775;-86
2022/06/21 23:00:17;;;;;;;2.70;2.40;;;27.30;43.20;;;;;;6146322;23;20365;-86
2022/06/21 23:03:09;;;;;;;3.07;2.57;;;27.30;43.10;;;;;;6145879;23;20419;-86
2022/06/21 23:05:44;;;;;;;3.20;2.37;;;27.30;43.10;;;;;;6145963;23;20808;-86
2022/06/21 23:08:14;;;;;;;3.77;2.10;;;27.30;43.20;;;;;;6121070;23;20384;-86
2022/06/21 23:10:58;;;;;;;3.50;2.43;;;27.30;43.40;;;;;;6145367;23;20508;-86
2022/06/21 23:13:33;;;;;;;2.27;2.07;;;27.20;43.40;;;;;;6144365;23;20357;-85
2022/06/21 23:16:01;;;;;;;2.20;2.00;;;27.20;43.40;;;;;;6120176;23;20431;-86
2022/06/21 23:18:39;;;;;;;2.93;2.20;;;27.20;43.50;;;;;;6144332;23;20775;-85
2022/06/21 23:21:40;;;;;;;2.87;2.20;;;27.30;43.50;;;;;;6119848;23;20384;-85
2022/06/21 23:24:12;;;;;;;3.47;2.30;;;27.30;43.50;;;;;;6054824;23;20370;-86
2022/06/21 23:27:01;;;;;;;3.30;2.20;;;27.20;43.40;;;;;;6057622;23;20810;-85
2022/06/21 23:29:31;;;;;;;3.43;2.50;;;27.20;43.40;;;;;;6057410;23;20391;-86
2022/06/21 23:32:18;;;;;;;2.50;2.10;;;27.20;43.40;;;;;;6033426;23;20431;-86
2022/06/21 23:34:55;;;;;;;4.00;2.30;;;27.20;43.50;;;;;;6056376;23;20372;-86
2022/06/21 23:37:30;;;;;;;3.00;2.30;;;27.20;43.40;;;;;;6031968;23;20383;-86
2022/06/21 23:40:00;;;;;;;3.07;2.57;;;27.20;43.40;;;;;;6055345;23;20513;-86
2022/06/21 23:42:30;;;;;;;4.30;2.37;;;27.20;43.50;;;;;;6055738;23;20412;-86
2022/06/21 23:45:00;;;;;;;2.70;2.00;;;27.20;43.50;;;;;;6056364;23;20396;-86
2022/06/21 23:47:37;;;;;;;2.70;2.40;;;27.20;43.50;;;;;;6055997;23;20934;-85
2022/06/21 23:50:28;;;;;;;3.10;2.27;;;27.20;43.50;;;;;;6031381;23;20974;-85
2022/06/21 23:53:01;;;;;;;3.30;2.30;;;27.20;43.50;;;;;;6031398;23;20403;-85
2022/06/21 23:55:28;;;;;;;3.27;2.60;;;27.20;43.50;;;;;;6033171;23;20384;-85
2022/06/21 23:57:58;;;;;;;4.30;2.73;;;27.20;43.50;;;;;;6057129;23;20372;-85
